Amidon, North Dakota
Current Conditions -  °F | °C
As of 8:56 AM on Sunday 25 Jan 2015 (Local Time) from KDIK Reporting Station
Overcast Overcast  
Wind Chill: -4°   Ceiling: 1300
Heat Index:   Visibility: 10mi
Dew Point: -2°   Wind: 12mph
Humidity: 82%   Direction: 280°W
Pressure: 29.96"   Gusts: NA
Location:  46.48°N, 103.32°W
Report Text: KDIK 251556Z AUTO 28010KT 10SM OVC013 01/M02 A2996 RMK AO2 SLP166 T00061022
Loading
Personal Weather Stations






























Interactive Weather Map New forecast layout! Learn more

10-Day Weather Forecast

Advertisements
Track Severe Weather on mobile